sensor_id;sensor_type;location;lat;lon;timestamp;pressure;altitude;pressure_sealevel;temperature;humidity
51999;BME280;73339;50.924;11.598;2023-11-21T00:00:34;98831.91;;;20.09;40.04
51999;BME280;73339;50.924;11.598;2023-11-21T00:03:04;98833.61;;;20.39;39.35
51999;BME280;73339;50.924;11.598;2023-11-21T00:05:35;98831.04;;;20.13;39.96
51999;BME280;73339;50.924;11.598;2023-11-21T00:08:05;98831.36;;;20.26;39.66
51999;BME280;73339;50.924;11.598;2023-11-21T00:10:36;98832.91;;;20.14;39.92
51999;BME280;73339;50.924;11.598;2023-11-21T00:13:06;98835.99;;;20.20;39.76
51999;BME280;73339;50.924;11.598;2023-11-21T00:15:37;98838.56;;;20.27;39.50
51999;BME280;73339;50.924;11.598;2023-11-21T00:18:07;98838.26;;;20.20;39.74
51999;BME280;73339;50.924;11.598;2023-11-21T00:20:37;98835.27;;;20.07;40.06
51999;BME280;73339;50.924;11.598;2023-11-21T00:23:08;98833.64;;;20.32;39.46
51999;BME280;73339;50.924;11.598;2023-11-21T00:25:38;98835.70;;;20.22;39.73
51999;BME280;73339;50.924;11.598;2023-11-21T00:28:09;98841.31;;;20.18;39.73
51999;BME280;73339;50.924;11.598;2023-11-21T00:30:39;98839.45;;;20.24;39.61
51999;BME280;73339;50.924;11.598;2023-11-21T00:33:09;98838.19;;;20.05;40.06
51999;BME280;73339;50.924;11.598;2023-11-21T00:35:40;98834.65;;;20.06;40.05
51999;BME280;73339;50.924;11.598;2023-11-21T00:38:10;98837.31;;;20.23;39.61
51999;BME280;73339;50.924;11.598;2023-11-21T00:40:41;98834.25;;;20.12;39.87
51999;BME280;73339;50.924;11.598;2023-11-21T00:43:11;98835.59;;;20.08;39.95
51999;BME280;73339;50.924;11.598;2023-11-21T00:45:42;98839.73;;;20.31;39.42
51999;BME280;73339;50.924;11.598;2023-11-21T00:48:12;98835.20;;;20.10;39.95
51999;BME280;73339;50.924;11.598;2023-11-21T00:50:43;98839.98;;;20.19;39.68
51999;BME280;73339;50.924;11.598;2023-11-21T00:53:13;98837.80;;;20.04;39.98
51999;BME280;73339;50.924;11.598;2023-11-21T00:55:43;98841.08;;;20.21;39.62
51999;BME280;73339;50.924;11.598;2023-11-21T00:58:14;98843.73;;;20.15;39.75
51999;BME280;73339;50.924;11.598;2023-11-21T01:00:44;98845.82;;;20.17;39.70
51999;BME280;73339;50.924;11.598;2023-11-21T01:03:15;98844.63;;;20.11;39.74
51999;BME280;73339;50.924;11.598;2023-11-21T01:05:45;98848.71;;;20.26;39.47
51999;BME280;73339;50.924;11.598;2023-11-21T01:08:16;98853.31;;;20.20;39.51
51999;BME280;73339;50.924;11.598;2023-11-21T01:10:46;98852.94;;;20.19;39.60
51999;BME280;73339;50.924;11.598;2023-11-21T01:13:17;98858.49;;;20.30;39.28
51999;BME280;73339;50.924;11.598;2023-11-21T01:15:47;98858.85;;;20.14;39.72
51999;BME280;73339;50.924;11.598;2023-11-21T01:18:17;98857.68;;;19.95;40.11
51999;BME280;73339;50.924;11.598;2023-11-21T01:20:48;98867.43;;;20.41;39.11
51999;BME280;73339;50.924;11.598;2023-11-21T01:23:19;98865.35;;;20.23;39.46
51999;BME280;73339;50.924;11.598;2023-11-21T01:25:49;98866.68;;;20.09;39.77
51999;BME280;73339;50.924;11.598;2023-11-21T01:28:20;98865.05;;;20.01;39.92
51999;BME280;73339;50.924;11.598;2023-11-21T01:30:50;98866.46;;;20.18;39.54
51999;BME280;73339;50.924;11.598;2023-11-21T01:33:20;98866.82;;;20.39;39.06
51999;BME280;73339;50.924;11.598;2023-11-21T01:35:51;98865.71;;;20.31;39.19
51999;BME280;73339;50.924;11.598;2023-11-21T01:38:21;98863.67;;;20.16;39.57
51999;BME280;73339;50.924;11.598;2023-11-21T01:40:52;98863.24;;;20.19;39.44
51999;BME280;73339;50.924;11.598;2023-11-21T01:43:22;98865.74;;;20.40;39.02
51999;BME280;73339;50.924;11.598;2023-11-21T01:45:53;98868.68;;;20.39;39.04
51999;BME280;73339;50.924;11.598;2023-11-21T01:48:23;98872.03;;;20.28;39.20
51999;BME280;73339;50.924;11.598;2023-11-21T01:50:53;98877.13;;;20.39;39.01
51999;BME280;73339;50.924;11.598;2023-11-21T01:53:24;98877.92;;;20.33;39.12
51999;BME280;73339;50.924;11.598;2023-11-21T01:55:54;98881.31;;;20.50;38.77
51999;BME280;73339;50.924;11.598;2023-11-21T01:58:24;98880.78;;;20.22;39.33
51999;BME280;73339;50.924;11.598;2023-11-21T02:00:55;98884.90;;;20.37;38.96
51999;BME280;73339;50.924;11.598;2023-11-21T02:03:25;98882.93;;;20.32;39.11
51999;BME280;73339;50.924;11.598;2023-11-21T02:05:56;98883.21;;;20.40;38.89
51999;BME280;73339;50.924;11.598;2023-11-21T02:08:26;98884.62;;;20.25;39.22
51999;BME280;73339;50.924;11.598;2023-11-21T02:10:57;98886.21;;;20.20;39.35
51999;BME280;73339;50.924;11.598;2023-11-21T02:13:27;98888.20;;;20.54;38.61
51999;BME280;73339;50.924;11.598;2023-11-21T02:15:57;98887.64;;;20.50;38.74
51999;BME280;73339;50.924;11.598;2023-11-21T02:18:28;98883.96;;;20.13;39.51
51999;BME280;73339;50.924;11.598;2023-11-21T02:20:58;98884.41;;;20.36;39.02
51999;BME280;73339;50.924;11.598;2023-11-21T02:23:28;98881.40;;;20.10;39.55
51999;BME280;73339;50.924;11.598;2023-11-21T02:25:59;98882.53;;;20.10;39.58
51999;BME280;73339;50.924;11.598;2023-11-21T02:28:30;98885.38;;;20.22;39.29
51999;BME280;73339;50.924;11.598;2023-11-21T02:31:00;98889.32;;;20.21;39.35
51999;BME280;73339;50.924;11.598;2023-11-21T02:33:30;98887.35;;;20.13;39.54
51999;BME280;73339;50.924;11.598;2023-11-21T02:36:01;98893.81;;;20.35;39.01
51999;BME280;73339;50.924;11.598;2023-11-21T02:38:31;98887.61;;;20.26;39.17
51999;BME280;73339;50.924;11.598;2023-11-21T02:41:01;98885.65;;;20.21;39.27
51999;BME280;73339;50.924;11.598;2023-11-21T02:43:32;98886.42;;;20.29;39.09
51999;BME280;73339;50.924;11.598;2023-11-21T02:46:03;98884.27;;;20.19;39.28
51999;BME280;73339;50.924;11.598;2023-11-21T02:48:33;98885.35;;;20.40;38.87
51999;BME280;73339;50.924;11.598;2023-11-21T02:51:04;98887.48;;;20.46;38.70
51999;BME280;73339;50.924;11.598;2023-11-21T02:53:34;98885.16;;;20.40;38.83
51999;BME280;73339;50.924;11.598;2023-11-21T02:56:05;98880.48;;;20.29;39.06
51999;BME280;73339;50.924;11.598;2023-11-21T02:58:35;98878.42;;;20.50;38.58
51999;BME280;73339;50.924;11.598;2023-11-21T03:01:05;98877.27;;;20.48;38.66
51999;BME280;73339;50.924;11.598;2023-11-21T03:03:36;98874.59;;;20.28;39.04
51999;BME280;73339;50.924;11.598;2023-11-21T03:06:06;98876.87;;;20.47;38.64
51999;BME280;73339;50.924;11.598;2023-11-21T03:08:36;98876.85;;;20.22;39.17
51999;BME280;73339;50.924;11.598;2023-11-21T03:11:07;98881.18;;;20.41;38.76
51999;BME280;73339;50.924;11.598;2023-11-21T03:13:38;98882.01;;;20.47;38.62
51999;BME280;73339;50.924;11.598;2023-11-21T03:16:08;98887.31;;;20.41;38.77
51999;BME280;73339;50.924;11.598;2023-11-21T03:18:38;98887.04;;;20.39;38.74
51999;BME280;73339;50.924;11.598;2023-11-21T03:21:09;98887.22;;;20.36;38.90
51999;BME280;73339;50.924;11.598;2023-11-21T03:23:39;98889.39;;;20.35;38.84
51999;BME280;73339;50.924;11.598;2023-11-21T03:26:12;98886.21;;;20.18;39.12
51999;BME280;73339;50.924;11.598;2023-11-21T03:28:40;98892.06;;;20.34;38.81
51999;BME280;73339;50.924;11.598;2023-11-21T03:31:11;98893.92;;;20.44;38.61
51999;BME280;73339;50.924;11.598;2023-11-21T03:33:41;98891.25;;;20.30;38.88
51999;BME280;73339;50.924;11.598;2023-11-21T03:36:11;98895.38;;;20.39;38.66
51999;BME280;73339;50.924;11.598;2023-11-21T03:38:42;98899.97;;;20.46;38.51
51999;BME280;73339;50.924;11.598;2023-11-21T03:41:12;98902.29;;;20.42;38.65
51999;BME280;73339;50.924;11.598;2023-11-21T03:43:43;98906.83;;;20.43;38.60
51999;BME280;73339;50.924;11.598;2023-11-21T03:46:13;98904.83;;;20.31;38.85
51999;BME280;73339;50.924;11.598;2023-11-21T03:48:43;98908.76;;;20.53;38.34
51999;BME280;73339;50.924;11.598;2023-11-21T03:51:14;98909.20;;;20.39;38.67
51999;BME280;73339;50.924;11.598;2023-11-21T03:53:44;98904.08;;;20.23;39.02
51999;BME280;73339;50.924;11.598;2023-11-21T03:56:15;98907.85;;;20.16;39.15
51999;BME280;73339;50.924;11.598;2023-11-21T03:58:45;98909.58;;;20.16;39.12
51999;BME280;73339;50.924;11.598;2023-11-21T04:01:20;98915.05;;;20.12;39.23
51999;BME280;73339;50.924;11.598;2023-11-21T04:03:46;98918.45;;;20.40;38.65
51999;BME280;73339;50.924;11.598;2023-11-21T04:06:17;98918.50;;;20.39;38.61
51999;BME280;73339;50.924;11.598;2023-11-21T04:08:47;98917.60;;;20.13;39.19
51999;BME280;73339;50.924;11.598;2023-11-21T04:11:17;98918.49;;;20.37;38.67
51999;BME280;73339;50.924;11.598;2023-11-21T04:13:48;98914.91;;;20.07;39.35
51999;BME280;73339;50.924;11.598;2023-11-21T04:16:19;98918.39;;;19.96;39.50
51999;BME280;73339;50.924;11.598;2023-11-21T04:18:49;98917.39;;;20.25;38.88
51999;BME280;73339;50.924;11.598;2023-11-21T04:21:19;98921.30;;;20.35;38.59
51999;BME280;73339;50.924;11.598;2023-11-21T04:23:50;98924.22;;;20.31;38.64
51999;BME280;73339;50.924;11.598;2023-11-21T04:26:20;98928.85;;;20.46;38.38
51999;BME280;73339;50.924;11.598;2023-11-21T04:28:51;98929.81;;;20.51;38.23
51999;BME280;73339;50.924;11.598;2023-11-21T04:31:21;98926.67;;;20.05;39.28
51999;BME280;73339;50.924;11.598;2023-11-21T04:33:51;98930.48;;;19.96;39.42
51999;BME280;73339;50.924;11.598;2023-11-21T04:36:22;98935.34;;;20.18;38.89
51999;BME280;73339;50.924;11.598;2023-11-21T04:38:53;98935.87;;;20.26;38.70
51999;BME280;73339;50.924;11.598;2023-11-21T04:41:23;98939.71;;;20.39;38.40
51999;BME280;73339;50.924;11.598;2023-11-21T04:43:53;98943.64;;;20.28;38.58
51999;BME280;73339;50.924;11.598;2023-11-21T04:46:24;98945.93;;;20.25;38.66
51999;BME280;73339;50.924;11.598;2023-11-21T04:48:54;98948.57;;;20.22;38.67
51999;BME280;73339;50.924;11.598;2023-11-21T04:51:25;98949.11;;;20.25;38.64
51999;BME280;73339;50.924;11.598;2023-11-21T04:53:55;98950.77;;;20.14;38.85
51999;BME280;73339;50.924;11.598;2023-11-21T04:56:25;98947.53;;;20.33;38.31
51999;BME280;73339;50.924;11.598;2023-11-21T04:58:56;98950.12;;;20.19;38.71
51999;BME280;73339;50.924;11.598;2023-11-21T05:01:26;98947.87;;;20.24;38.63
51999;BME280;73339;50.924;11.598;2023-11-21T05:03:57;98953.71;;;20.08;39.00
51999;BME280;73339;50.924;11.598;2023-11-21T05:06:27;98955.34;;;20.18;38.68
51999;BME280;73339;50.924;11.598;2023-11-21T05:08:58;98957.23;;;20.27;38.49
51999;BME280;73339;50.924;11.598;2023-11-21T05:11:29;98956.93;;;20.27;38.51
51999;BME280;73339;50.924;11.598;2023-11-21T05:13:59;98959.48;;;20.39;38.27
51999;BME280;73339;50.924;11.598;2023-11-21T05:16:29;98962.97;;;20.50;38.00
51999;BME280;73339;50.924;11.598;2023-11-21T05:18:59;98967.80;;;20.22;38.56
51999;BME280;73339;50.924;11.598;2023-11-21T05:21:30;98969.29;;;20.30;38.44
51999;BME280;73339;50.924;11.598;2023-11-21T05:24:00;98971.94;;;20.48;38.08
51999;BME280;73339;50.924;11.598;2023-11-21T05:26:31;98974.35;;;20.43;38.12
51999;BME280;73339;50.924;11.598;2023-11-21T05:29:01;98973.09;;;20.56;37.91
51999;BME280;73339;50.924;11.598;2023-11-21T05:31:32;98974.52;;;20.56;37.86
51999;BME280;73339;50.924;11.598;2023-11-21T05:34:03;98974.34;;;20.41;38.18
51999;BME280;73339;50.924;11.598;2023-11-21T05:36:33;98977.64;;;20.48;37.96
51999;BME280;73339;50.924;11.598;2023-11-21T05:39:03;98978.58;;;20.41;38.18
51999;BME280;73339;50.924;11.598;2023-11-21T05:41:34;98975.44;;;20.41;38.15
51999;BME280;73339;50.924;11.598;2023-11-21T05:44:04;98975.19;;;20.41;38.12
51999;BME280;73339;50.924;11.598;2023-11-21T05:46:34;98980.42;;;20.25;38.46
51999;BME280;73339;50.924;11.598;2023-11-21T05:49:05;98984.26;;;20.37;38.20
51999;BME280;73339;50.924;11.598;2023-11-21T05:51:35;98986.11;;;20.32;38.27
51999;BME280;73339;50.924;11.598;2023-11-21T05:54:06;98986.34;;;20.19;38.58
51999;BME280;73339;50.924;11.598;2023-11-21T05:56:36;98985.71;;;20.37;38.16
51999;BME280;73339;50.924;11.598;2023-11-21T05:59:07;98986.90;;;20.03;38.92
51999;BME280;73339;50.924;11.598;2023-11-21T06:01:37;98983.33;;;20.20;38.55
51999;BME280;73339;50.924;11.598;2023-11-21T06:04:08;98985.19;;;20.03;38.97
51999;BME280;73339;50.924;11.598;2023-11-21T06:06:38;98991.74;;;19.97;39.04
51999;BME280;73339;50.924;11.598;2023-11-21T06:09:08;98994.37;;;20.21;38.56
51999;BME280;73339;50.924;11.598;2023-11-21T06:11:39;99000.58;;;19.96;39.06
51999;BME280;73339;50.924;11.598;2023-11-21T06:14:09;99000.84;;;20.03;38.91
51999;BME280;73339;50.924;11.598;2023-11-21T06:16:40;99002.92;;;20.04;38.87
51999;BME280;73339;50.924;11.598;2023-11-21T06:19:10;99011.33;;;20.01;38.99
51999;BME280;73339;50.924;11.598;2023-11-21T06:21:41;99019.00;;;19.87;39.14
51999;BME280;73339;50.924;11.598;2023-11-21T06:24:11;99025.94;;;19.92;39.11
51999;BME280;73339;50.924;11.598;2023-11-21T06:26:41;99029.08;;;20.00;38.89
51999;BME280;73339;50.924;11.598;2023-11-21T06:29:12;99034.96;;;20.05;38.73
51999;BME280;73339;50.924;11.598;2023-11-21T06:31:42;99036.70;;;20.19;38.48
51999;BME280;73339;50.924;11.598;2023-11-21T06:34:13;99037.95;;;20.20;38.37
51999;BME280;73339;50.924;11.598;2023-11-21T06:36:43;99044.13;;;20.10;38.65
51999;BME280;73339;50.924;11.598;2023-11-21T06:39:14;99050.29;;;20.20;38.43
51999;BME280;73339;50.924;11.598;2023-11-21T06:41:44;99055.16;;;20.16;38.52
51999;BME280;73339;50.924;11.598;2023-11-21T06:44:15;99057.80;;;19.27;40.33
51999;BME280;73339;50.924;11.598;2023-11-21T06:46:45;99056.73;;;19.02;40.76
51999;BME280;73339;50.924;11.598;2023-11-21T06:49:15;99053.89;;;18.89;41.02
51999;BME280;73339;50.924;11.598;2023-11-21T06:51:46;99056.47;;;20.15;38.18
51999;BME280;73339;50.924;11.598;2023-11-21T06:54:17;99057.92;;;20.20;37.79
51999;BME280;73339;50.924;11.598;2023-11-21T06:56:47;99057.30;;;20.90;37.33
51999;BME280;73339;50.924;11.598;2023-11-21T06:59:18;99058.49;;;21.05;37.78
51999;BME280;73339;50.924;11.598;2023-11-21T07:01:48;99064.05;;;21.43;36.89
51999;BME280;73339;50.924;11.598;2023-11-21T07:04:18;99067.82;;;21.49;37.45
51999;BME280;73339;50.924;11.598;2023-11-21T07:06:49;99067.62;;;21.53;37.54
51999;BME280;73339;50.924;11.598;2023-11-21T07:09:19;99073.21;;;21.69;37.45
51999;BME280;73339;50.924;11.598;2023-11-21T07:11:49;99073.17;;;20.82;38.43
51999;BME280;73339;50.924;11.598;2023-11-21T07:14:20;99071.55;;;21.18;37.63
51999;BME280;73339;50.924;11.598;2023-11-21T07:16:51;99069.20;;;21.27;37.30
51999;BME280;73339;50.924;11.598;2023-11-21T07:19:21;99070.05;;;21.15;37.46
51999;BME280;73339;50.924;11.598;2023-11-21T07:21:51;99074.67;;;21.23;37.29
51999;BME280;73339;50.924;11.598;2023-11-21T07:24:22;99084.63;;;21.06;37.58
51999;BME280;73339;50.924;11.598;2023-11-21T07:26:52;99087.40;;;21.18;37.31
51999;BME280;73339;50.924;11.598;2023-11-21T07:29:23;99095.27;;;20.96;37.73
51999;BME280;73339;50.924;11.598;2023-11-21T07:31:53;99096.38;;;20.96;37.68
51999;BME280;73339;50.924;11.598;2023-11-21T07:34:23;99098.11;;;20.89;37.77
51999;BME280;73339;50.924;11.598;2023-11-21T07:36:54;99098.81;;;20.61;38.31
51999;BME280;73339;50.924;11.598;2023-11-21T07:39:24;99100.20;;;20.56;38.42
51999;BME280;73339;50.924;11.598;2023-11-21T07:41:55;99101.25;;;20.61;38.26
51999;BME280;73339;50.924;11.598;2023-11-21T07:44:25;99105.90;;;20.52;38.43
51999;BME280;73339;50.924;11.598;2023-11-21T07:46:55;99112.42;;;20.56;38.33
51999;BME280;73339;50.924;11.598;2023-11-21T07:49:26;99111.50;;;20.69;38.04
51999;BME280;73339;50.924;11.598;2023-11-21T07:51:56;99113.57;;;20.72;37.95
51999;BME280;73339;50.924;11.598;2023-11-21T07:54:27;99116.06;;;20.75;37.93
51999;BME280;73339;50.924;11.598;2023-11-21T07:56:57;99121.36;;;21.01;37.33
51999;BME280;73339;50.924;11.598;2023-11-21T07:59:28;99123.95;;;21.12;37.01
51999;BME280;73339;50.924;11.598;2023-11-21T08:01:58;99129.59;;;21.32;36.64
51999;BME280;73339;50.924;11.598;2023-11-21T08:04:29;99130.13;;;21.31;36.63
51999;BME280;73339;50.924;11.598;2023-11-21T08:06:59;99128.95;;;21.47;36.32
51999;BME280;73339;50.924;11.598;2023-11-21T08:09:29;99132.02;;;21.51;36.24
51999;BME280;73339;50.924;11.598;2023-11-21T08:12:00;99134.39;;;21.54;36.15
51999;BME280;73339;50.924;11.598;2023-11-21T08:14:30;99136.91;;;21.47;36.35
51999;BME280;73339;50.924;11.598;2023-11-21T08:17:01;99142.25;;;21.62;36.03
51999;BME280;73339;50.924;11.598;2023-11-21T08:19:31;99144.62;;;21.67;35.95
51999;BME280;73339;50.924;11.598;2023-11-21T08:22:02;99147.27;;;21.62;36.03
51999;BME280;73339;50.924;11.598;2023-11-21T08:24:32;99151.35;;;21.63;36.07
51999;BME280;73339;50.924;11.598;2023-11-21T08:27:03;99154.65;;;21.72;35.84
51999;BME280;73339;50.924;11.598;2023-11-21T08:29:33;99152.23;;;21.65;35.98
51999;BME280;73339;50.924;11.598;2023-11-21T08:32:04;99155.62;;;21.76;35.83
51999;BME280;73339;50.924;11.598;2023-11-21T08:34:34;99155.73;;;21.52;36.29
51999;BME280;73339;50.924;11.598;2023-11-21T08:37:04;99157.10;;;21.62;36.10
51999;BME280;73339;50.924;11.598;2023-11-21T08:39:36;99158.10;;;21.62;36.08
51999;BME280;73339;50.924;11.598;2023-11-21T08:42:05;99161.52;;;21.53;36.22
51999;BME280;73339;50.924;11.598;2023-11-21T08:44:36;99164.58;;;21.39;36.54
51999;BME280;73339;50.924;11.598;2023-11-21T08:47:06;99168.34;;;21.53;36.23
51999;BME280;73339;50.924;11.598;2023-11-21T08:49:37;99172.15;;;21.53;36.24
51999;BME280;73339;50.924;11.598;2023-11-21T08:52:07;99175.97;;;21.40;36.77
51999;BME280;73339;50.924;11.598;2023-11-21T08:54:38;99177.59;;;21.45;36.43
51999;BME280;73339;50.924;11.598;2023-11-21T08:57:08;99178.17;;;21.46;36.27
51999;BME280;73339;50.924;11.598;2023-11-21T08:59:38;99178.66;;;21.33;36.62
51999;BME280;73339;50.924;11.598;2023-11-21T09:02:09;99183.20;;;21.53;36.38
51999;BME280;73339;50.924;11.598;2023-11-21T09:04:39;99184.68;;;21.34;36.94
51999;BME280;73339;50.924;11.598;2023-11-21T09:07:10;99188.45;;;21.56;36.65
51999;BME280;73339;50.924;11.598;2023-11-21T09:09:40;99191.55;;;21.71;36.36
51999;BME280;73339;50.924;11.598;2023-11-21T09:12:10;99194.76;;;21.98;35.84
51999;BME280;73339;50.924;11.598;2023-11-21T09:14:41;99193.07;;;21.81;36.03
51999;BME280;73339;50.924;11.598;2023-11-21T09:17:11;99198.83;;;21.94;35.87
51999;BME280;73339;50.924;11.598;2023-11-21T09:19:42;99198.45;;;21.97;35.86
51999;BME280;73339;50.924;11.598;2023-11-21T09:22:12;99200.53;;;22.11;35.70
51999;BME280;73339;50.924;11.598;2023-11-21T09:24:43;99201.49;;;21.86;36.40
51999;BME280;73339;50.924;11.598;2023-11-21T09:27:13;99203.35;;;21.79;36.57
51999;BME280;73339;50.924;11.598;2023-11-21T09:29:44;99203.77;;;21.89;36.59
51999;BME280;73339;50.924;11.598;2023-11-21T09:32:14;99202.66;;;21.98;36.35
51999;BME280;73339;50.924;11.598;2023-11-21T09:34:44;99205.99;;;22.16;36.08
51999;BME280;73339;50.924;11.598;2023-11-21T09:37:15;99210.80;;;22.13;36.28
51999;BME280;73339;50.924;11.598;2023-11-21T09:39:45;99213.90;;;22.19;36.11
51999;BME280;73339;50.924;11.598;2023-11-21T09:42:21;99215.66;;;21.85;37.37
51999;BME280;73339;50.924;11.598;2023-11-21T09:44:54;99213.35;;;22.15;36.26
51999;BME280;73339;50.924;11.598;2023-11-21T09:47:17;99212.31;;;22.32;36.08
51999;BME280;73339;50.924;11.598;2023-11-21T09:49:49;99213.93;;;22.10;36.76
51999;BME280;73339;50.924;11.598;2023-11-21T09:52:22;99212.99;;;21.98;36.95
51999;BME280;73339;50.924;11.598;2023-11-21T09:54:49;99215.44;;;21.90;37.23
51999;BME280;73339;50.924;11.598;2023-11-21T09:57:19;99217.31;;;21.90;37.16
51999;BME280;73339;50.924;11.598;2023-11-21T09:59:51;99219.61;;;22.00;36.84
51999;BME280;73339;50.924;11.598;2023-11-21T10:02:21;99222.78;;;21.91;37.04
51999;BME280;73339;50.924;11.598;2023-11-21T10:04:50;99225.29;;;22.17;36.37
51999;BME280;73339;50.924;11.598;2023-11-21T10:07:21;99226.88;;;22.14;36.72
51999;BME280;73339;50.924;11.598;2023-11-21T10:09:51;99227.05;;;22.14;36.86
51999;BME280;73339;50.924;11.598;2023-11-21T10:12:22;99227.54;;;22.09;36.80
51999;BME280;73339;50.924;11.598;2023-11-21T10:14:52;99224.78;;;22.03;37.09
51999;BME280;73339;50.924;11.598;2023-11-21T10:17:24;99225.08;;;22.05;37.23
51999;BME280;73339;50.924;11.598;2023-11-21T10:19:53;99226.36;;;22.07;37.26
51999;BME280;73339;50.924;11.598;2023-11-21T10:22:23;99227.21;;;22.21;36.99
51999;BME280;73339;50.924;11.598;2023-11-21T10:24:55;99229.71;;;22.25;36.92
51999;BME280;73339;50.924;11.598;2023-11-21T10:27:27;99230.56;;;22.26;36.84
51999;BME280;73339;50.924;11.598;2023-11-21T10:29:54;99231.91;;;22.13;36.90
51999;BME280;73339;50.924;11.598;2023-11-21T10:32:28;99234.95;;;22.17;36.65
51999;BME280;73339;50.924;11.598;2023-11-21T10:34:56;99235.63;;;22.31;36.59
51999;BME280;73339;50.924;11.598;2023-11-21T10:37:25;99238.78;;;22.30;36.84
51999;BME280;73339;50.924;11.598;2023-11-21T10:39:57;99241.35;;;22.34;36.40
51999;BME280;73339;50.924;11.598;2023-11-21T10:42:26;99242.91;;;22.36;36.62
51999;BME280;73339;50.924;11.598;2023-11-21T10:44:57;99244.14;;;22.41;36.65
51999;BME280;73339;50.924;11.598;2023-11-21T10:47:27;99244.24;;;22.43;36.72
51999;BME280;73339;50.924;11.598;2023-11-21T10:50:00;99242.35;;;21.90;37.69
51999;BME280;73339;50.924;11.598;2023-11-21T10:52:28;99241.23;;;21.98;37.57
51999;BME280;73339;50.924;11.598;2023-11-21T10:54:59;99235.38;;;22.17;36.87
51999;BME280;73339;50.924;11.598;2023-11-21T10:57:29;99235.26;;;22.23;36.68
51999;BME280;73339;50.924;11.598;2023-11-21T10:59:59;99238.40;;;22.10;37.02
51999;BME280;73339;50.924;11.598;2023-11-21T11:02:30;99241.01;;;22.00;37.15
51999;BME280;73339;50.924;11.598;2023-11-21T11:05:01;99241.71;;;22.05;37.04
51999;BME280;73339;50.924;11.598;2023-11-21T11:07:31;99241.77;;;21.89;37.21
51999;BME280;73339;50.924;11.598;2023-11-21T11:10:02;99240.91;;;22.03;36.74
51999;BME280;73339;50.924;11.598;2023-11-21T11:12:32;99240.82;;;22.17;36.40
51999;BME280;73339;50.924;11.598;2023-11-21T11:15:03;99240.86;;;22.12;36.60
51999;BME280;73339;50.924;11.598;2023-11-21T11:17:32;99244.52;;;22.19;36.45
51999;BME280;73339;50.924;11.598;2023-11-21T11:20:03;99248.27;;;22.22;36.40
51999;BME280;73339;50.924;11.598;2023-11-21T11:22:37;99248.24;;;22.17;36.40
51999;BME280;73339;50.924;11.598;2023-11-21T11:25:17;99253.20;;;22.07;36.48
51999;BME280;73339;50.924;11.598;2023-11-21T11:27:40;99254.13;;;21.98;36.82
51999;BME280;73339;50.924;11.598;2023-11-21T11:30:14;99259.06;;;22.03;36.62
51999;BME280;73339;50.924;11.598;2023-11-21T11:32:43;99262.55;;;22.02;36.78
51999;BME280;73339;50.924;11.598;2023-11-21T11:35:10;99263.14;;;21.85;37.19
51999;BME280;73339;50.924;11.598;2023-11-21T11:37:36;99266.86;;;22.06;36.69
51999;BME280;73339;50.924;11.598;2023-11-21T11:40:07;99270.59;;;22.02;36.74
51999;BME280;73339;50.924;11.598;2023-11-21T11:42:36;99274.21;;;21.87;37.01
51999;BME280;73339;50.924;11.598;2023-11-21T11:45:17;99276.38;;;21.94;36.80
51999;BME280;73339;50.924;11.598;2023-11-21T11:47:37;99278.67;;;22.00;36.81
51999;BME280;73339;50.924;11.598;2023-11-21T11:50:09;99280.09;;;21.88;37.02
51999;BME280;73339;50.924;11.598;2023-11-21T11:52:40;99279.08;;;21.80;37.00
51999;BME280;73339;50.924;11.598;2023-11-21T11:55:10;99279.55;;;21.97;36.74
51999;BME280;73339;50.924;11.598;2023-11-21T11:57:40;99283.24;;;21.82;37.05
51999;BME280;73339;50.924;11.598;2023-11-21T12:00:13;99287.05;;;21.77;37.28
51999;BME280;73339;50.924;11.598;2023-11-21T12:02:40;99291.91;;;21.90;36.92
51999;BME280;73339;50.924;11.598;2023-11-21T12:05:11;99293.10;;;22.06;36.62
51999;BME280;73339;50.924;11.598;2023-11-21T12:07:43;99294.21;;;22.00;36.76
51999;BME280;73339;50.924;11.598;2023-11-21T12:10:13;99295.68;;;22.16;36.43
51999;BME280;73339;50.924;11.598;2023-11-21T12:12:43;99298.06;;;22.15;36.40
51999;BME280;73339;50.924;11.598;2023-11-21T12:15:12;99298.84;;;22.02;36.67
51999;BME280;73339;50.924;11.598;2023-11-21T12:17:43;99300.02;;;22.16;36.35
51999;BME280;73339;50.924;11.598;2023-11-21T12:20:14;99302.69;;;22.15;36.40
51999;BME280;73339;50.924;11.598;2023-11-21T12:22:45;99307.67;;;22.18;36.30
51999;BME280;73339;50.924;11.598;2023-11-21T12:25:15;99313.49;;;22.24;36.16
51999;BME280;73339;50.924;11.598;2023-11-21T12:27:45;99317.09;;;22.06;36.56
51999;BME280;73339;50.924;11.598;2023-11-21T12:30:16;99319.76;;;22.30;36.02
51999;BME280;73339;50.924;11.598;2023-11-21T12:32:48;99324.98;;;20.91;39.03
51999;BME280;73339;50.924;11.598;2023-11-21T12:35:15;99326.61;;;20.57;39.60
51999;BME280;73339;50.924;11.598;2023-11-21T12:37:46;99333.15;;;20.43;39.69
51999;BME280;73339;50.924;11.598;2023-11-21T12:40:16;99336.29;;;21.01;38.56
51999;BME280;73339;50.924;11.598;2023-11-21T12:42:48;99341.52;;;21.85;36.80
51999;BME280;73339;50.924;11.598;2023-11-21T12:45:20;99345.77;;;22.01;36.74
51999;BME280;73339;50.924;11.598;2023-11-21T12:47:48;99342.71;;;22.17;36.97
51999;BME280;73339;50.924;11.598;2023-11-21T12:50:19;99346.62;;;22.26;37.18
51999;BME280;73339;50.924;11.598;2023-11-21T12:52:48;99346.81;;;22.43;36.40
51999;BME280;73339;50.924;11.598;2023-11-21T12:55:19;99353.28;;;22.48;37.16
51999;BME280;73339;50.924;11.598;2023-11-21T12:57:50;99360.41;;;22.54;36.76
51999;BME280;73339;50.924;11.598;2023-11-21T13:00:27;99365.65;;;22.59;37.34
51999;BME280;73339;50.924;11.598;2023-11-21T13:02:51;99363.64;;;22.49;37.57
51999;BME280;73339;50.924;11.598;2023-11-21T13:05:26;99366.08;;;22.57;37.50